Cruise inventory

Prince Madog PM4DW12

Cruise plan

Cruise Info. 
Ship name (ship code)Prince Madog (74PD)
Cruise identifierPM4DW12
Cruise period1978-06-19 — 1978-06-22
StatusCompleted
Port of departureMenai Bridge, United Kingdom
Port of returnMenai Bridge, United Kingdom
ObjectivesLiverpool Bay Front Survey.
Chief scientistSteven P R Czitrom Baus (University of Wales, Bangor School of Ocean Sciences)
Ocean/sea areas 
GeneralIrish Sea and St. George's Channel
Track chartsPrince Madog PM4DW12 cruise track — trk_livbaysurv.pdf (00 MB) 
Measurements 
Physical oceanography 
CTD stationsQuantity: number of stations = 68
Data held at BODC 
Series/Profiles 
68  CTD/STD cast
Vertical spatial coordinates
Salinity of the water column
Temperature of the water column
Vertical spatial coordinates
Salinity of the water column
Temperature of the water column

BODC idDate/TimeLocationDoc.
648031978-06-20 17:40 53° 56' 45" N  4° 6' 21" W  View metadata report for BODC series reference number 64803
648151978-06-20 18:22 53° 56' 52" N  3° 59' 38" W  View metadata report for BODC series reference number 64815
648271978-06-20 19:40 53° 57' 17" N  3° 53' 20" W  View metadata report for BODC series reference number 64827
648391978-06-20 20:10 53° 56' 42" N  3° 46' 51" W  View metadata report for BODC series reference number 64839
648401978-06-20 21:20 53° 56' 42" N  3° 40' 4" W  View metadata report for BODC series reference number 64840
648521978-06-20 21:58 53° 56' 45" N  3° 33' 3" W  View metadata report for BODC series reference number 64852
648641978-06-20 23:35 53° 57' 3" N  3° 26' 56" W  View metadata report for BODC series reference number 64864
648761978-06-21 00:25 53° 56' 31" N  3° 19' 30" W  View metadata report for BODC series reference number 64876
648881978-06-21 01:28 54° 0' 39" N  3° 20' 13" W  View metadata report for BODC series reference number 64888
649071978-06-21 02:15 54° 4' 37" N  3° 20' 2" W  View metadata report for BODC series reference number 64907
649191978-06-21 02:55 54° 4' 58" N  3° 25' 58" W  View metadata report for BODC series reference number 64919
649201978-06-21 03:40 54° 4' 47" N  3° 33' 53" W  View metadata report for BODC series reference number 64920
649321978-06-21 04:27 54° 4' 40" N  3° 41' 2" W  View metadata report for BODC series reference number 64932
649441978-06-21 05:15 54° 4' 33" N  3° 46' 55" W  View metadata report for BODC series reference number 64944
649561978-06-21 06:03 54° 4' 51" N  3° 53' 5" W  View metadata report for BODC series reference number 64956
649681978-06-21 06:58 54° 5' 6" N  4° 0' 10" W  View metadata report for BODC series reference number 64968
649811978-06-21 07:55 54° 4' 51" N  4° 7' 22" W  View metadata report for BODC series reference number 64981
649931978-06-21 08:55 54° 5' 27" N  4° 15' 17" W  View metadata report for BODC series reference number 64993
650071978-06-21 09:40 54° 5' 34" N  4° 19' 40" W  View metadata report for BODC series reference number 65007
650191978-06-21 11:05 53° 57' 43" N  4° 25' 11" W  View metadata report for BODC series reference number 65019
650201978-06-21 11:43 53° 57' 7" N  4° 20' 9" W  View metadata report for BODC series reference number 65020
650321978-06-21 12:29 53° 56' 52" N  4° 13' 29" W  View metadata report for BODC series reference number 65032
650441978-06-21 13:23 53° 57' 3" N  4° 7' 12" W  View metadata report for BODC series reference number 65044
650561978-06-21 14:18 53° 56' 49" N  4° 0' 10" W  View metadata report for BODC series reference number 65056
650681978-06-21 15:07 53° 56' 49" N  3° 53' 20" W  View metadata report for BODC series reference number 65068
650811978-06-21 16:17 53° 49' 8" N  3° 53' 24" W  View metadata report for BODC series reference number 65081
650931978-06-21 17:18 53° 48' 36" N  3° 46' 12" W  View metadata report for BODC series reference number 65093
651001978-06-21 18:02 53° 49' 4" N  3° 53' 13" W  View metadata report for BODC series reference number 65100
651121978-06-21 18:52 53° 49' 19" N  4° 0' 35" W  View metadata report for BODC series reference number 65112
651241978-06-21 19:48 53° 49' 26" N  4° 6' 46" W  View metadata report for BODC series reference number 65124
651361978-06-21 21:25 53° 48' 53" N  4° 13' 33" W  View metadata report for BODC series reference number 65136
651481978-06-21 23:31 53° 41' 20" N  4° 26' 38" W  View metadata report for BODC series reference number 65148
651611978-06-22 00:38 53° 40' 44" N  4° 20' 5" W  View metadata report for BODC series reference number 65161
651731978-06-22 01:28 53° 41' 13" N  4° 14' 9" W  View metadata report for BODC series reference number 65173
651851978-06-22 02:55 53° 40' 47" N  4° 7' 12" W  View metadata report for BODC series reference number 65185
651971978-06-22 04:50 53° 41' 9" N  4° 0' 0" W  View metadata report for BODC series reference number 65197
652041978-06-22 17:35 53° 48' 50" N  3° 33' 14" W  View metadata report for BODC series reference number 65204
652161978-06-22 18:38 53° 40' 55" N  3° 33' 25" W  View metadata report for BODC series reference number 65216
652281978-06-22 19:32 53° 40' 26" N  3° 39' 54" W  View metadata report for BODC series reference number 65228
652411978-06-22 20:30 53° 41' 20" N  3° 46' 8" W  View metadata report for BODC series reference number 65241
652531978-06-22 21:38 53° 40' 55" N  3° 52' 44" W  View metadata report for BODC series reference number 65253
652651978-06-22 22:30 53° 41' 6" N  3° 59' 49" W  View metadata report for BODC series reference number 65265
652771978-06-22 23:55 53° 41' 2" N  4° 7' 4" W  View metadata report for BODC series reference number 65277
646551978-06-20 04:37 53° 32' 42" N  3° 46' 58" W  View metadata report for BODC series reference number 64655
646671978-06-20 05:40 53° 32' 42" N  3° 39' 43" W  View metadata report for BODC series reference number 64667
646791978-06-20 06:15 53° 32' 45" N  3° 33' 18" W  View metadata report for BODC series reference number 64679
646801978-06-20 06:50 53° 32' 42" N  3° 26' 41" W  View metadata report for BODC series reference number 64680
646921978-06-20 08:52 53° 47' 34" N  3° 21' 0" W  View metadata report for BODC series reference number 64692
647111978-06-20 09:32 53° 49' 4" N  3° 26' 16" W  View metadata report for BODC series reference number 64711
647231978-06-20 10:40 53° 49' 19" N  3° 32' 34" W  View metadata report for BODC series reference number 64723
647351978-06-20 11:44 53° 48' 53" N  3° 39' 50" W  View metadata report for BODC series reference number 64735
647471978-06-20 12:23 53° 48' 46" N  3° 46' 26" W  View metadata report for BODC series reference number 64747
647591978-06-20 13:04 53° 49' 4" N  3° 53' 27" W  View metadata report for BODC series reference number 64759
647601978-06-20 13:45 53° 49' 22" N  4° 0' 25" W  View metadata report for BODC series reference number 64760
647721978-06-20 14:20 53° 49' 1" N  4° 7' 4" W  View metadata report for BODC series reference number 64772
647841978-06-20 14:58 53° 47' 42" N  4° 12' 35" W  View metadata report for BODC series reference number 64784
647961978-06-20 16:20 53° 57' 36" N  4° 12' 28" W  View metadata report for BODC series reference number 64796
645261978-06-19 15:35 53° 41' 9" N  3° 19' 19" W  View metadata report for BODC series reference number 64526
645381978-06-19 17:00 53° 40' 58" N  3° 26' 49" W  View metadata report for BODC series reference number 64538
645511978-06-19 17:50 53° 41' 9" N  3° 33' 46" W  View metadata report for BODC series reference number 64551
645631978-06-19 19:30 53° 41' 9" N  3° 40' 8" W  View metadata report for BODC series reference number 64563
645751978-06-19 20:27 53° 41' 16" N  3° 47' 2" W  View metadata report for BODC series reference number 64575
645871978-06-19 21:45 53° 40' 40" N  3° 53' 9" W  View metadata report for BODC series reference number 64587
645991978-06-19 22:30 53° 41' 6" N  4° 0' 3" W  View metadata report for BODC series reference number 64599
646061978-06-19 23:43 53° 40' 47" N  4° 6' 57" W  View metadata report for BODC series reference number 64606
646181978-06-20 01:52 53° 33' 39" N  4° 6' 54" W  View metadata report for BODC series reference number 64618
646311978-06-20 02:54 53° 32' 52" N  4° 0' 28" W  View metadata report for BODC series reference number 64631
646431978-06-20 03:50 53° 32' 52" N  3° 53' 24" W  View metadata report for BODC series reference number 64643